Airfield :
LOGIN :

Register | Disclaimer

   EN    FR    IT 

 










Legend :    VFR   Marginal VFR   IFR   Intensive IFR   Very Intensive IFR
Visi :
Ceiling :
>= 8 km
>= 3000ft
5 to 8 km
1000 to 3000 ft
1500m to 5 km
500 to 1000 ft
800 to 1500m
200 to 500 ft
< 800m
< 200 ft
Symbols :   Thunderstorms  Fog  Heavy snow  Heavy precipitations  Wind > 20 kt
SIGMETs :     Misc.  Thunderstorms  Icing  Turbulence  Mountain Waves  Volcanic Ashes






- Airport Elevation : 268 ft
- IATA code : BFS


EGAA - Belfast Aldergrove

CURRENT METAR :
  • 281620Z 14009KT 090V170 CAVOK 22/12 Q1030

EXPIRED METARs :
  • 281550Z 15008KT 120V190 CAVOK 22/12 Q1030
  • 281520Z 13007KT 090V170 CAVOK 23/13 Q1030
  • 281450Z 13008KT 090V190 CAVOK 23/13 Q1030
  • 281420Z 15008KT 120V180 CAVOK 22/13 Q1031
  • 281350Z 11008KT 070V160 CAVOK 23/13 Q1031
  • 281320Z 10008KT 9999 FEW039 23/13 Q1031

TAF TAF EGAA
Valid from the 28 at 12:00 until the 29 at 12:00 UTC


281054Z 2812/2912 12007KT 9999 FEW045



MET'MAP, your aeronautical weather chart ! - Copyright ORBIFLY December 2007 - Disclaimer

ORBIFLY MET'MAP TEAM :

Programming & Development : Alexandra Zaïnal
Concept & original design : Baudouin d'Aumeries
Assistance for programming : Marc-Olivier Méhu
Technical & hardware support : Manuel Goepfert

Contact : metmap@orbifly.com




SOURCES & CREDITS :

   NOAA